Time;durP1;ratioP1;P1;durP2;ratioP2;P2;SDS_P1;SDS_P2;PMS_P1;PMS_P2;Temp;Humidity;BMP_temperature;BMP_pressure;BME280_temperature;BME280_humidity;BME280_pressure;Samples;Min_cycle;Max_cycle;Signal;HPM_P1;HPM_P2
2022/09/16 00:00:28;;;;;;;11.57;3.10;;;;;;;;;;5027999;28;20139;-64
2022/09/16 00:02:55;;;;;;;13.32;3.88;;;;;;;;;;5026280;28;20621;-66
2022/09/16 00:05:21;;;;;;;10.90;3.72;;;;;;;;;;5024943;28;20083;-64
2022/09/16 00:07:48;;;;;;;10.65;3.33;;;;;;;;;;5036170;28;20041;-64
2022/09/16 00:10:14;;;;;;;12.95;3.95;;;;;;;;;;5028814;28;20648;-65
2022/09/16 00:12:40;;;;;;;10.05;3.45;;;;;;;;;;5038324;28;20115;-65
2022/09/16 00:15:07;;;;;;;12.40;3.50;;;;;;;;;;5034348;28;20050;-65
2022/09/16 00:17:33;;;;;;;14.07;3.83;;;;;;;;;;5038060;28;20559;-64
2022/09/16 00:19:59;;;;;;;10.52;3.60;;;;;;;;;;5031279;28;20087;-65
2022/09/16 00:22:27;;;;;;;11.18;3.30;;;;;;;;;;5033660;28;20064;-64
2022/09/16 00:24:53;;;;;;;10.32;3.33;;;;;;;;;;5012957;28;20017;-65
2022/09/16 00:27:19;;;;;;;12.77;3.25;;;;;;;;;;5008813;28;20555;-65
2022/09/16 00:29:45;;;;;;;12.55;3.28;;;;;;;;;;5031663;28;20034;-64
2022/09/16 00:32:11;;;;;;;10.60;2.78;;;;;;;;;;5025523;28;20349;-64
2022/09/16 00:34:38;;;;;;;17.27;4.40;;;;;;;;;;5013260;28;20847;-64
2022/09/16 00:37:07;;;;;;;13.48;3.20;;;;;;;;;;5030398;28;20577;-64
2022/09/16 00:39:33;;;;;;;10.07;3.13;;;;;;;;;;5015814;28;20721;-65
2022/09/16 00:42:00;;;;;;;9.73;3.00;;;;;;;;;;5009366;28;20506;-65
2022/09/16 00:44:45;;;;;;;10.65;2.42;;;;;;;;;;5035519;28;20032;-65
2022/09/16 00:47:12;;;;;;;10.05;2.25;;;;;;;;;;5026483;28;20032;-65
2022/09/16 00:49:38;;;;;;;8.38;1.95;;;;;;;;;;5018365;28;20162;-65
2022/09/16 00:52:05;;;;;;;9.93;2.33;;;;;;;;;;5036381;28;20415;-64
2022/09/16 00:54:31;;;;;;;7.65;2.03;;;;;;;;;;5039058;28;20086;-64
2022/09/16 00:56:59;;;;;;;8.07;1.90;;;;;;;;;;5032927;28;20017;-64
2022/09/16 00:59:33;;;;;;;8.68;2.00;;;;;;;;;;5016451;28;20062;-65
2022/09/16 01:02:04;;;;;;;7.65;1.95;;;;;;;;;;5031316;28;20150;-65
2022/09/16 01:04:32;;;;;;;7.75;2.20;;;;;;;;;;5029540;28;20033;-65
2022/09/16 01:06:58;;;;;;;8.85;2.08;;;;;;;;;;5029021;28;20073;-64
2022/09/16 01:09:26;;;;;;;7.95;2.13;;;;;;;;;;5028571;28;21175;-64
2022/09/16 01:11:52;;;;;;;7.18;1.63;;;;;;;;;;5033868;28;20025;-64
2022/09/16 01:17:30;;;;;;;7.50;1.70;;;;;;;;;;5029322;28;20044;-65
2022/09/16 01:20:15;;;;;;;6.90;1.90;;;;;;;;;;5035430;28;20464;-65
2022/09/16 01:22:47;;;;;;;9.68;2.30;;;;;;;;;;5034142;28;20255;-65
2022/09/16 01:25:16;;;;;;;8.20;1.92;;;;;;;;;;5027069;28;20106;-65
2022/09/16 01:27:55;;;;;;;9.48;2.17;;;;;;;;;;5040299;28;20654;-65
2022/09/16 01:30:27;;;;;;;12.15;2.13;;;;;;;;;;5039472;28;20903;-65
2022/09/16 01:32:53;;;;;;;9.27;2.17;;;;;;;;;;5016590;28;20070;-65
2022/09/16 01:35:49;;;;;;;8.70;2.00;;;;;;;;;;5028532;28;20029;-65
2022/09/16 01:38:22;;;;;;;9.93;2.20;;;;;;;;;;4931366;28;20098;-65
2022/09/16 01:40:53;;;;;;;8.93;1.95;;;;;;;;;;4950737;28;20413;-65
2022/09/16 01:43:20;;;;;;;11.38;2.15;;;;;;;;;;4950823;28;20046;-65
2022/09/16 01:45:53;;;;;;;8.93;2.03;;;;;;;;;;4954898;28;20031;-65
2022/09/16 01:48:38;;;;;;;10.15;2.55;;;;;;;;;;4938832;28;20047;-65
2022/09/16 01:51:12;;;;;;;12.93;2.35;;;;;;;;;;4947503;28;20046;-65
2022/09/16 01:53:41;;;;;;;8.80;1.98;;;;;;;;;;4951422;28;20136;-65
2022/09/16 01:56:19;;;;;;;9.48;1.85;;;;;;;;;;4944939;28;20253;-65
2022/09/16 01:58:49;;;;;;;8.98;2.00;;;;;;;;;;4951800;28;20041;-65
2022/09/16 02:01:31;;;;;;;7.43;1.70;;;;;;;;;;4950600;28;20544;-65
2022/09/16 02:04:01;;;;;;;8.20;2.25;;;;;;;;;;4946558;28;20188;-65
2022/09/16 02:06:29;;;;;;;7.45;1.80;;;;;;;;;;4952766;28;20454;-65
2022/09/16 02:08:58;;;;;;;8.18;2.08;;;;;;;;;;4933388;28;20489;-65
2022/09/16 02:11:24;;;;;;;7.30;1.95;;;;;;;;;;4935071;28;20030;-65
2022/09/16 02:13:57;;;;;;;7.93;1.98;;;;;;;;;;4956896;28;20042;-65
2022/09/16 02:16:29;;;;;;;8.82;2.22;;;;;;;;;;5025998;28;20553;-65
2022/09/16 02:18:58;;;;;;;9.68;2.30;;;;;;;;;;5033668;28;20057;-64
2022/09/16 02:21:25;;;;;;;9.52;2.33;;;;;;;;;;5033511;28;20035;-64
2022/09/16 02:23:54;;;;;;;10.98;2.40;;;;;;;;;;5017797;28;20043;-64
2022/09/16 02:26:24;;;;;;;10.35;2.85;;;;;;;;;;5011089;28;20451;-65
2022/09/16 02:28:52;;;;;;;11.32;2.55;;;;;;;;;;5019626;28;20419;-65
2022/09/16 02:31:22;;;;;;;9.98;2.58;;;;;;;;;;5026296;28;20095;-64
2022/09/16 02:33:55;;;;;;;8.98;2.65;;;;;;;;;;5032584;28;20968;-65
2022/09/16 02:36:22;;;;;;;10.38;2.67;;;;;;;;;;5019304;28;20036;-65
2022/09/16 02:38:50;;;;;;;11.38;2.70;;;;;;;;;;5035197;28;20036;-65
2022/09/16 02:41:17;;;;;;;11.07;2.70;;;;;;;;;;5029660;28;20605;-65
2022/09/16 02:43:44;;;;;;;10.38;2.55;;;;;;;;;;5033850;28;20037;-65
2022/09/16 02:46:13;;;;;;;11.85;3.55;;;;;;;;;;5025180;28;20060;-64
2022/09/16 02:48:48;;;;;;;10.90;3.13;;;;;;;;;;5019270;28;20044;-65
2022/09/16 02:51:24;;;;;;;10.98;3.10;;;;;;;;;;5031521;28;20739;-65
2022/09/16 02:53:56;;;;;;;9.43;2.22;;;;;;;;;;5038853;28;20032;-65
2022/09/16 02:56:36;;;;;;;9.82;2.35;;;;;;;;;;5040087;28;20059;-65
2022/09/16 02:59:04;;;;;;;8.07;2.17;;;;;;;;;;5012013;28;20432;-65
2022/09/16 03:01:32;;;;;;;8.02;1.80;;;;;;;;;;5042506;28;20028;-65
2022/09/16 03:03:58;;;;;;;7.50;1.80;;;;;;;;;;5016812;28;20403;-65
2022/09/16 03:06:25;;;;;;;7.60;2.10;;;;;;;;;;5031218;28;20036;-65
2022/09/16 03:08:53;;;;;;;7.93;1.90;;;;;;;;;;5018824;28;20048;-65
2022/09/16 03:11:38;;;;;;;7.70;2.10;;;;;;;;;;5013890;28;20083;-65
2022/09/16 03:14:07;;;;;;;8.35;2.28;;;;;;;;;;5018029;28;20025;-64
2022/09/16 03:16:52;;;;;;;10.32;2.38;;;;;;;;;;5025659;28;20031;-65
2022/09/16 03:19:41;;;;;;;10.05;2.67;;;;;;;;;;5037389;28;20040;-64
2022/09/16 03:22:07;;;;;;;11.25;2.63;;;;;;;;;;4919591;28;20047;-65
2022/09/16 03:24:33;;;;;;;9.35;2.53;;;;;;;;;;4925835;28;20240;-65
2022/09/16 03:27:03;;;;;;;8.65;2.20;;;;;;;;;;4925174;28;20051;-65
2022/09/16 03:29:49;;;;;;;10.07;2.30;;;;;;;;;;4926596;28;20031;-65
2022/09/16 03:32:30;;;;;;;10.15;2.45;;;;;;;;;;4922681;28;20039;-65
2022/09/16 03:35:02;;;;;;;9.43;1.90;;;;;;;;;;4920274;28;20031;-65
2022/09/16 03:37:33;;;;;;;7.82;1.80;;;;;;;;;;4921716;28;20102;-65
2022/09/16 03:39:59;;;;;;;9.30;2.00;;;;;;;;;;4918465;28;20043;-65
2022/09/16 03:42:25;;;;;;;7.85;2.03;;;;;;;;;;4923263;28;20035;-66
2022/09/16 03:44:52;;;;;;;7.32;1.83;;;;;;;;;;4920351;28;20050;-65
2022/09/16 03:47:18;;;;;;;9.43;1.80;;;;;;;;;;4920720;28;20536;-65
2022/09/16 03:49:44;;;;;;;7.35;1.83;;;;;;;;;;4926886;28;20047;-65
2022/09/16 03:52:10;;;;;;;9.75;1.80;;;;;;;;;;4927613;28;20549;-65
2022/09/16 03:54:37;;;;;;;9.48;1.52;;;;;;;;;;4926597;28;20071;-65
2022/09/16 03:57:03;;;;;;;4.72;1.40;;;;;;;;;;4921869;28;20086;-65
2022/09/16 03:59:30;;;;;;;7.60;1.75;;;;;;;;;;4994499;28;20033;-65
2022/09/16 04:01:56;;;;;;;6.45;1.50;;;;;;;;;;5028523;28;20029;-65
2022/09/16 04:04:22;;;;;;;9.18;1.98;;;;;;;;;;5031455;28;20041;-65
2022/09/16 04:06:48;;;;;;;7.25;1.73;;;;;;;;;;5014596;28;20119;-64
2022/09/16 04:09:15;;;;;;;8.63;1.70;;;;;;;;;;5029828;28;20041;-64
2022/09/16 04:11:42;;;;;;;8.07;2.00;;;;;;;;;;5039358;28;20053;-64
2022/09/16 04:14:08;;;;;;;8.57;1.90;;;;;;;;;;5037376;28;20024;-65
2022/09/16 04:16:34;;;;;;;7.72;1.83;;;;;;;;;;5036244;28;20556;-65
2022/09/16 04:19:00;;;;;;;7.00;1.70;;;;;;;;;;5032022;28;20099;-65
2022/09/16 04:21:26;;;;;;;9.68;2.35;;;;;;;;;;5036320;28;20036;-65
2022/09/16 04:23:53;;;;;;;10.95;1.90;;;;;;;;;;5022574;28;20115;-65
2022/09/16 04:26:19;;;;;;;7.72;1.83;;;;;;;;;;5034158;28;20029;-65
2022/09/16 04:28:46;;;;;;;9.93;1.83;;;;;;;;;;5016272;28;20036;-66
2022/09/16 04:31:14;;;;;;;7.75;1.85;;;;;;;;;;5034604;28;20032;-66
2022/09/16 04:33:40;;;;;;;7.38;2.03;;;;;;;;;;5036218;28;20032;-65
2022/09/16 04:36:11;;;;;;;9.63;1.98;;;;;;;;;;5034345;28;20071;-65
2022/09/16 04:38:37;;;;;;;8.50;2.25;;;;;;;;;;5010648;28;20474;-65
2022/09/16 04:41:04;;;;;;;6.38;1.80;;;;;;;;;;5031241;28;20306;-65
2022/09/16 04:43:31;;;;;;;12.00;2.13;;;;;;;;;;5031995;28;20037;-65
2022/09/16 04:45:57;;;;;;;10.48;2.60;;;;;;;;;;5031802;28;20429;-65
2022/09/16 04:48:24;;;;;;;11.25;2.45;;;;;;;;;;5039888;28;20992;-64
2022/09/16 04:50:51;;;;;;;12.20;2.50;;;;;;;;;;5032548;28;20035;-65
2022/09/16 04:53:18;;;;;;;16.33;2.40;;;;;;;;;;5021862;28;20033;-65
2022/09/16 04:55:44;;;;;;;8.93;2.20;;;;;;;;;;5038190;28;20060;-65
2022/09/16 04:58:10;;;;;;;12.95;2.20;;;;;;;;;;5034852;28;20089;-65
2022/09/16 05:00:36;;;;;;;12.35;2.22;;;;;;;;;;5029333;28;20224;-65
2022/09/16 05:03:02;;;;;;;13.25;2.58;;;;;;;;;;5034185;28;20635;-65
2022/09/16 05:05:28;;;;;;;11.30;2.35;;;;;;;;;;5030475;28;20033;-66
2022/09/16 05:07:54;;;;;;;10.73;2.22;;;;;;;;;;5017058;28;20068;-65
2022/09/16 05:10:21;;;;;;;9.98;2.10;;;;;;;;;;5037050;28;20110;-65
2022/09/16 05:12:53;;;;;;;8.85;2.00;;;;;;;;;;5033314;28;20063;-66
2022/09/16 05:15:20;;;;;;;9.38;2.50;;;;;;;;;;5031486;28;20098;-65
2022/09/16 05:17:46;;;;;;;16.65;2.75;;;;;;;;;;5031448;28;20111;-65
2022/09/16 05:20:13;;;;;;;13.90;2.50;;;;;;;;;;5026847;28;20541;-66
2022/09/16 05:22:39;;;;;;;11.07;2.50;;;;;;;;;;5029858;28;20040;-65
2022/09/16 05:25:06;;;;;;;7.15;1.80;;;;;;;;;;5027208;28;20499;-65
2022/09/16 05:27:33;;;;;;;8.05;1.90;;;;;;;;;;5034809;28;20147;-65
2022/09/16 05:29:59;;;;;;;9.23;2.13;;;;;;;;;;5026436;28;20876;-65
2022/09/16 05:32:26;;;;;;;10.45;2.00;;;;;;;;;;5034442;28;20021;-65
2022/09/16 05:34:52;;;;;;;9.75;2.10;;;;;;;;;;5028895;28;20098;-65
2022/09/16 05:37:18;;;;;;;9.27;1.70;;;;;;;;;;5030515;28;20048;-65
2022/09/16 05:39:45;;;;;;;8.15;2.10;;;;;;;;;;5033594;28;20039;-65
2022/09/16 05:42:11;;;;;;;8.15;1.70;;;;;;;;;;5010674;28;20036;-65
2022/09/16 05:44:37;;;;;;;9.02;2.22;;;;;;;;;;5035521;28;20546;-65
2022/09/16 05:47:03;;;;;;;8.43;2.28;;;;;;;;;;5034089;28;20033;-66
2022/09/16 05:49:29;;;;;;;;;;;;;;;;;;5035536;28;20021;-65
2022/09/16 05:51:55;;;;;;;11.43;2.00;;;;;;;;;;5038859;28;19994;-65
2022/09/16 05:54:23;;;;;;;8.20;2.08;;;;;;;;;;5033350;28;20140;-65
2022/09/16 05:56:50;;;;;;;7.28;2.08;;;;;;;;;;5033463;28;20024;-65
2022/09/16 05:59:17;;;;;;;10.15;2.10;;;;;;;;;;5015788;28;20032;-65
2022/09/16 06:01:43;;;;;;;9.18;2.50;;;;;;;;;;5022926;28;20113;-65
2022/09/16 06:04:10;;;;;;;8.13;1.90;;;;;;;;;;5030571;28;21067;-65
2022/09/16 06:06:38;;;;;;;11.00;2.50;;;;;;;;;;5032258;28;20514;-65
2022/09/16 06:09:09;;;;;;;10.88;2.58;;;;;;;;;;5017546;28;20052;-65
2022/09/16 06:11:37;;;;;;;11.88;2.58;;;;;;;;;;5030770;28;20099;-65
2022/09/16 06:14:04;;;;;;;9.10;2.38;;;;;;;;;;5036956;28;20069;-65
2022/09/16 06:16:31;;;;;;;10.75;2.38;;;;;;;;;;5026585;28;20021;-65
2022/09/16 06:18:58;;;;;;;10.52;2.10;;;;;;;;;;5026573;28;20120;-64
2022/09/16 06:21:24;;;;;;;9.23;2.13;;;;;;;;;;5024860;28;20467;-65
2022/09/16 06:23:50;;;;;;;11.60;2.30;;;;;;;;;;5029323;28;20044;-65
2022/09/16 06:26:18;;;;;;;7.25;1.85;;;;;;;;;;5025538;28;20040;-65
2022/09/16 06:28:45;;;;;;;11.23;2.30;;;;;;;;;;5027681;28;20036;-65
2022/09/16 06:31:13;;;;;;;9.82;2.50;;;;;;;;;;5021510;28;20029;-65
2022/09/16 06:33:39;;;;;;;11.07;2.55;;;;;;;;;;5023867;28;20244;-65
2022/09/16 06:36:17;;;;;;;10.52;2.35;;;;;;;;;;5030429;28;20032;-65
2022/09/16 06:38:43;;;;;;;11.57;2.25;;;;;;;;;;5029029;28;20364;-65
2022/09/16 06:41:10;;;;;;;10.15;2.20;;;;;;;;;;5027298;28;20566;-65
2022/09/16 06:43:37;;;;;;;12.70;2.72;;;;;;;;;;5006997;28;20345;-65
2022/09/16 06:46:15;;;;;;;12.40;2.25;;;;;;;;;;5008184;28;21326;-65
2022/09/16 06:48:42;;;;;;;10.15;2.67;;;;;;;;;;5023332;28;20028;-65
2022/09/16 06:51:15;;;;;;;7.70;2.13;;;;;;;;;;5020175;28;20285;-65
2022/09/16 06:53:41;;;;;;;10.48;2.45;;;;;;;;;;5024692;28;20021;-65
2022/09/16 06:56:11;;;;;;;11.75;2.78;;;;;;;;;;5021092;28;20364;-66
2022/09/16 06:58:38;;;;;;;12.15;2.67;;;;;;;;;;5024309;28;20033;-66
2022/09/16 07:01:25;;;;;;;7.47;2.13;;;;;;;;;;5021641;28;20028;-65
2022/09/16 07:03:51;;;;;;;9.88;2.55;;;;;;;;;;5024200;28;20041;-65
2022/09/16 07:06:19;;;;;;;13.15;4.65;;;;;;;;;;5021731;28;20033;-65
2022/09/16 07:08:45;;;;;;;11.77;4.18;;;;;;;;;;5009246;28;20124;-65
2022/09/16 07:11:13;;;;;;;24.55;5.78;;;;;;;;;;5007115;28;20586;-64
2022/09/16 07:13:39;;;;;;;15.20;4.22;;;;;;;;;;5010038;28;20017;-66
2022/09/16 07:16:06;;;;;;;13.75;3.25;;;;;;;;;;5024526;28;20040;-65
2022/09/16 07:18:32;;;;;;;12.05;2.35;;;;;;;;;;5008959;28;20060;-66
2022/09/16 07:21:11;;;;;;;14.02;2.67;;;;;;;;;;5023927;28;20514;-63
2022/09/16 07:23:38;;;;;;;11.43;2.50;;;;;;;;;;5025215;28;20025;-63
2022/09/16 07:26:05;;;;;;;14.05;2.78;;;;;;;;;;4999897;28;20544;-66
2022/09/16 07:28:32;;;;;;;14.82;2.65;;;;;;;;;;5003332;28;20375;-63
2022/09/16 07:31:05;;;;;;;11.25;2.75;;;;;;;;;;5020093;28;20412;-64
2022/09/16 07:33:35;;;;;;;16.30;3.00;;;;;;;;;;5006383;28;20036;-64
2022/09/16 07:36:02;;;;;;;12.18;2.72;;;;;;;;;;5027117;28;20028;-64
2022/09/16 07:38:29;;;;;;;13.82;2.30;;;;;;;;;;5036826;28;20031;-64
2022/09/16 07:40:55;;;;;;;12.30;2.50;;;;;;;;;;5028292;28;20037;-64
2022/09/16 07:43:22;;;;;;;10.82;2.20;;;;;;;;;;5027842;28;20492;-64
2022/09/16 07:45:55;;;;;;;12.23;2.53;;;;;;;;;;5011754;28;20033;-64
2022/09/16 07:48:21;;;;;;;11.10;1.98;;;;;;;;;;5011964;28;20406;-65
2022/09/16 07:51:14;;;;;;;12.25;2.25;;;;;;;;;;5010026;28;20190;-64
2022/09/16 07:53:40;;;;;;;13.07;2.65;;;;;;;;;;5009486;28;20365;-65
2022/09/16 07:56:07;;;;;;;16.17;2.50;;;;;;;;;;5006282;28;20131;-65
2022/09/16 07:58:33;;;;;;;13.65;3.42;;;;;;;;;;5025412;28;20130;-65
2022/09/16 08:01:00;;;;;;;10.93;2.17;;;;;;;;;;5007175;28;20459;-65
2022/09/16 08:03:26;;;;;;;12.05;2.92;;;;;;;;;;5027758;28;20049;-65
2022/09/16 08:05:52;;;;;;;16.65;2.60;;;;;;;;;;5014117;28;20409;-64
2022/09/16 08:08:18;;;;;;;10.32;2.17;;;;;;;;;;5031277;28;20172;-65
2022/09/16 08:10:52;;;;;;;8.90;2.08;;;;;;;;;;5035627;28;20037;-65
2022/09/16 08:13:18;;;;;;;10.55;2.10;;;;;;;;;;5024964;28;20024;-65
2022/09/16 08:15:44;;;;;;;11.52;1.80;;;;;;;;;;5030703;28;20065;-65
2022/09/16 08:18:10;;;;;;;8.48;2.10;;;;;;;;;;5032953;28;20033;-65
2022/09/16 08:20:37;;;;;;;8.30;1.98;;;;;;;;;;5022501;28;20123;-65
2022/09/16 08:23:03;;;;;;;7.10;1.75;;;;;;;;;;5030407;28;20056;-64
2022/09/16 08:25:29;;;;;;;8.48;1.85;;;;;;;;;;5032399;28;20060;-65
2022/09/16 08:27:55;;;;;;;7.65;1.77;;;;;;;;;;5030750;28;20264;-65
2022/09/16 08:30:21;;;;;;;6.97;1.77;;;;;;;;;;5026032;28;20029;-65
2022/09/16 08:32:47;;;;;;;8.63;1.80;;;;;;;;;;5022848;28;20017;-65
2022/09/16 08:35:13;;;;;;;12.23;2.13;;;;;;;;;;5008414;28;20277;-65
2022/09/16 08:37:40;;;;;;;10.60;2.25;;;;;;;;;;5025961;28;20056;-65
2022/09/16 08:40:07;;;;;;;9.95;1.98;;;;;;;;;;5027367;28;20029;-65
2022/09/16 08:42:45;;;;;;;8.90;1.83;;;;;;;;;;5030948;28;20032;-65
2022/09/16 08:45:11;;;;;;;11.57;2.10;;;;;;;;;;5030896;28;20028;-66
2022/09/16 08:47:47;;;;;;;7.68;1.75;;;;;;;;;;5030483;28;20033;-65
2022/09/16 08:50:17;;;;;;;10.40;2.10;;;;;;;;;;5026900;28;20041;-65
2022/09/16 08:52:44;;;;;;;9.80;1.75;;;;;;;;;;5033216;28;20017;-65
2022/09/16 08:55:12;;;;;;;7.55;1.92;;;;;;;;;;5031800;28;20031;-65
2022/09/16 08:57:40;;;;;;;11.30;2.08;;;;;;;;;;5032006;28;20189;-66
2022/09/16 09:00:11;;;;;;;15.75;2.92;;;;;;;;;;5025667;28;20090;-65
2022/09/16 09:02:57;;;;;;;8.98;2.30;;;;;;;;;;5025773;28;20211;-66
2022/09/16 09:05:42;;;;;;;10.98;2.78;;;;;;;;;;5032431;28;20699;-65
2022/09/16 09:08:20;;;;;;;7.75;1.70;;;;;;;;;;5010654;28;20767;-67
2022/09/16 09:10:49;;;;;;;7.32;1.80;;;;;;;;;;5026569;28;20052;-65
2022/09/16 09:13:16;;;;;;;10.32;2.20;;;;;;;;;;5025248;28;21095;-65
2022/09/16 09:15:42;;;;;;;7.63;2.00;;;;;;;;;;5028789;28;20166;-65
2022/09/16 09:18:17;;;;;;;7.55;1.92;;;;;;;;;;5026829;28;20032;-65
2022/09/16 09:20:43;;;;;;;8.83;2.00;;;;;;;;;;5028019;28;20032;-65
2022/09/16 09:23:09;;;;;;;11.18;2.20;;;;;;;;;;5022719;28;20036;-65
2022/09/16 09:25:35;;;;;;;6.40;1.60;;;;;;;;;;5027206;28;20029;-65
2022/09/16 09:28:21;;;;;;;8.02;1.70;;;;;;;;;;5005174;28;20135;-65
2022/09/16 09:30:57;;;;;;;7.43;1.77;;;;;;;;;;5009846;28;20044;-65
2022/09/16 09:33:30;;;;;;;7.13;1.60;;;;;;;;;;5025900;28;20467;-65
2022/09/16 09:36:02;;;;;;;13.82;7.40;;;;;;;;;;5029687;28;20510;-65
2022/09/16 09:38:47;;;;;;;9.25;2.45;;;;;;;;;;5007787;28;20037;-65
2022/09/16 09:41:13;;;;;;;7.68;2.17;;;;;;;;;;5019314;28;20024;-65
2022/09/16 09:43:48;;;;;;;8.32;2.00;;;;;;;;;;5008375;28;20574;-65
2022/09/16 09:46:22;;;;;;;8.55;1.75;;;;;;;;;;5024486;28;20032;-65
2022/09/16 09:48:53;;;;;;;7.68;1.67;;;;;;;;;;5022689;28;20536;-65
2022/09/16 09:51:21;;;;;;;9.80;1.73;;;;;;;;;;5027403;28;20365;-65
2022/09/16 09:53:51;;;;;;;9.55;1.70;;;;;;;;;;5027059;28;20033;-65
2022/09/16 09:56:22;;;;;;;10.73;2.00;;;;;;;;;;5026892;28;20112;-65
2022/09/16 09:59:04;;;;;;;9.23;1.80;;;;;;;;;;5029984;28;20033;-65
2022/09/16 10:01:30;;;;;;;7.00;1.30;;;;;;;;;;5007815;28;20029;-66
2022/09/16 10:03:58;;;;;;;7.85;1.60;;;;;;;;;;5028445;28;20220;-65
2022/09/16 10:06:29;;;;;;;6.93;1.30;;;;;;;;;;5034161;28;20035;-66
2022/09/16 10:08:57;;;;;;;6.95;1.35;;;;;;;;;;5030195;28;20038;-66
2022/09/16 10:11:26;;;;;;;23.30;2.75;;;;;;;;;;5028741;28;20557;-66
2022/09/16 10:13:59;;;;;;;15.38;1.83;;;;;;;;;;5030310;28;20037;-67
2022/09/16 10:16:31;;;;;;;12.77;1.77;;;;;;;;;;5019544;28;20405;-66
2022/09/16 10:19:05;;;;;;;8.38;1.80;;;;;;;;;;5021924;28;20108;-66
2022/09/16 10:21:44;;;;;;;6.82;1.63;;;;;;;;;;5029077;28;20407;-65
2022/09/16 10:24:31;;;;;;;6.50;1.70;;;;;;;;;;5027154;28;20083;-66
2022/09/16 10:26:57;;;;;;;10.50;2.17;;;;;;;;;;5025803;28;21364;-67
2022/09/16 10:29:24;;;;;;;14.77;2.33;;;;;;;;;;5031826;28;20405;-65
2022/09/16 10:31:50;;;;;;;14.13;2.38;;;;;;;;;;5033830;28;20025;-65
2022/09/16 10:34:16;;;;;;;10.52;1.90;;;;;;;;;;5022919;28;24863;-65
2022/09/16 10:36:42;;;;;;;13.30;2.20;;;;;;;;;;5013868;28;20398;-65
2022/09/16 10:39:21;;;;;;;15.75;2.40;;;;;;;;;;5030832;28;20045;-68
2022/09/16 10:41:47;;;;;;;12.60;1.80;;;;;;;;;;5030388;28;20025;-69
2022/09/16 10:44:15;;;;;;;8.55;1.50;;;;;;;;;;5007605;28;20099;-67
2022/09/16 10:46:52;;;;;;;8.40;1.45;;;;;;;;;;5014919;28;20501;-67
2022/09/16 10:49:19;;;;;;;7.80;1.50;;;;;;;;;;5020820;28;20035;-65
2022/09/16 10:51:46;;;;;;;11.32;1.42;;;;;;;;;;5033444;28;20052;-65
2022/09/16 10:54:23;;;;;;;4.88;1.23;;;;;;;;;;5025924;28;20183;-65
2022/09/16 10:56:50;;;;;;;5.45;1.10;;;;;;;;;;5029655;28;20408;-64
2022/09/16 10:59:16;;;;;;;6.30;1.17;;;;;;;;;;5023789;28;22265;-67
2022/09/16 11:01:47;;;;;;;8.55;1.67;;;;;;;;;;5029628;28;20044;-64
2022/09/16 11:04:16;;;;;;;4.75;1.15;;;;;;;;;;5021683;28;20455;-65
2022/09/16 11:06:58;;;;;;;4.85;1.30;;;;;;;;;;5007917;28;20713;-65
2022/09/16 11:09:43;;;;;;;7.40;1.60;;;;;;;;;;5027375;28;20094;-66
2022/09/16 11:12:35;;;;;;;10.35;1.67;;;;;;;;;;5028179;28;20450;-66
2022/09/16 11:15:15;;;;;;;8.93;1.80;;;;;;;;;;5029064;28;20112;-65
2022/09/16 11:17:44;;;;;;;9.15;1.80;;;;;;;;;;5032060;28;20535;-66
2022/09/16 11:20:29;;;;;;;12.23;2.45;;;;;;;;;;5026825;28;20033;-66
2022/09/16 11:22:55;;;;;;;13.50;2.97;;;;;;;;;;5031708;28;20525;-65
2022/09/16 11:25:21;;;;;;;12.27;3.30;;;;;;;;;;5029361;28;20029;-65
2022/09/16 11:27:54;;;;;;;13.48;2.65;;;;;;;;;;5031905;28;20029;-66
2022/09/16 11:30:21;;;;;;;12.07;3.08;;;;;;;;;;5009977;28;20386;-65
2022/09/16 11:32:53;;;;;;;12.75;3.80;;;;;;;;;;5007435;28;20033;-65
2022/09/16 11:35:22;;;;;;;11.70;3.30;;;;;;;;;;5028340;28;20033;-65
2022/09/16 11:37:52;;;;;;;11.52;3.08;;;;;;;;;;5031916;28;20085;-65
2022/09/16 11:40:33;;;;;;;12.98;3.28;;;;;;;;;;5026370;28;20037;-66
2022/09/16 11:43:20;;;;;;;11.60;2.60;;;;;;;;;;5008042;28;20111;-65
2022/09/16 11:46:04;;;;;;;10.18;2.90;;;;;;;;;;5033382;28;20681;-66
2022/09/16 11:48:48;;;;;;;10.45;2.70;;;;;;;;;;5031218;28;20032;-66
2022/09/16 11:51:17;;;;;;;8.55;2.20;;;;;;;;;;5027058;28;20041;-66
2022/09/16 11:53:46;;;;;;;9.68;2.17;;;;;;;;;;5029764;28;20032;-66
2022/09/16 11:56:21;;;;;;;11.50;2.10;;;;;;;;;;5027853;28;20056;-66
2022/09/16 11:58:53;;;;;;;7.60;1.83;;;;;;;;;;5031737;28;20047;-66
2022/09/16 12:01:19;;;;;;;8.65;2.20;;;;;;;;;;5030076;28;20547;-66
2022/09/16 12:03:53;;;;;;;8.38;2.30;;;;;;;;;;5030156;28;20036;-67
2022/09/16 12:06:22;;;;;;;10.90;5.45;;;;;;;;;;5017158;28;20029;-66
2022/09/16 12:08:57;;;;;;;16.08;11.13;;;;;;;;;;5030886;28;20466;-66
2022/09/16 12:11:31;;;;;;;11.05;5.00;;;;;;;;;;5012776;28;20033;-65
2022/09/16 12:14:10;;;;;;;11.02;3.20;;;;;;;;;;5029595;28;20116;-66
2022/09/16 12:16:48;;;;;;;9.27;2.30;;;;;;;;;;5030505;28;20059;-66
2022/09/16 12:19:27;;;;;;;7.15;2.00;;;;;;;;;;5027919;28;20064;-65
2022/09/16 12:21:59;;;;;;;7.38;1.60;;;;;;;;;;5031462;28;20029;-65
2022/09/16 12:24:37;;;;;;;6.88;1.42;;;;;;;;;;5031625;28;20230;-67
2022/09/16 12:27:19;;;;;;;8.18;1.30;;;;;;;;;;5026101;28;20370;-67
2022/09/16 12:29:53;;;;;;;6.93;1.85;;;;;;;;;;5028386;28;20123;-67
2022/09/16 12:32:21;;;;;;;7.10;1.65;;;;;;;;;;5007519;28;20114;-65
2022/09/16 12:34:49;;;;;;;5.93;1.50;;;;;;;;;;5029014;28;20039;-66
2022/09/16 12:37:18;;;;;;;7.10;1.42;;;;;;;;;;5024379;28;20218;-66
2022/09/16 12:39:44;;;;;;;6.47;1.50;;;;;;;;;;5030756;28;20029;-66
2022/09/16 12:42:11;;;;;;;6.88;1.95;;;;;;;;;;5008773;28;20036;-65
2022/09/16 12:44:55;;;;;;;7.20;1.52;;;;;;;;;;5030342;28;20033;-66
2022/09/16 12:47:40;;;;;;;7.85;1.70;;;;;;;;;;5020136;28;20029;-66
2022/09/16 12:50:25;;;;;;;8.13;1.73;;;;;;;;;;5021835;28;20036;-66
2022/09/16 12:52:53;;;;;;;6.75;1.70;;;;;;;;;;5028867;28;20024;-66
2022/09/16 12:55:42;;;;;;;8.27;2.38;;;;;;;;;;5025461;28;20487;-66
2022/09/16 12:58:08;;;;;;;8.93;2.50;;;;;;;;;;5026589;28;20518;-66
2022/09/16 13:00:41;;;;;;;8.38;2.17;;;;;;;;;;5025594;28;20116;-66
2022/09/16 13:03:19;;;;;;;11.45;2.67;;;;;;;;;;4993393;28;20375;-67
2022/09/16 13:05:47;;;;;;;11.40;3.00;;;;;;;;;;5008057;28;20037;-68
2022/09/16 13:08:25;;;;;;;15.75;3.67;;;;;;;;;;5002948;28;20059;-66
2022/09/16 13:11:02;;;;;;;12.65;3.20;;;;;;;;;;5006682;28;20033;-66
2022/09/16 13:13:45;;;;;;;15.57;3.85;;;;;;;;;;5005890;28;20324;-66
2022/09/16 13:16:11;;;;;;;14.45;4.93;;;;;;;;;;5008017;28;20503;-66
2022/09/16 13:18:40;;;;;;;13.68;5.05;;;;;;;;;;5005562;28;20025;-66
2022/09/16 13:21:12;;;;;;;13.75;4.10;;;;;;;;;;5004102;28;20380;-67
2022/09/16 13:23:41;;;;;;;11.50;2.70;;;;;;;;;;4986694;28;20475;-67
2022/09/16 13:26:08;;;;;;;11.35;2.92;;;;;;;;;;5000962;28;20049;-67
2022/09/16 13:28:36;;;;;;;8.77;2.20;;;;;;;;;;5008238;28;20183;-67
2022/09/16 13:31:12;;;;;;;9.38;2.40;;;;;;;;;;5005485;28;20028;-67
2022/09/16 13:33:42;;;;;;;9.63;2.30;;;;;;;;;;5005286;28;20021;-67
2022/09/16 13:36:24;;;;;;;14.32;2.63;;;;;;;;;;5008181;28;20556;-67
2022/09/16 13:38:57;;;;;;;9.63;2.63;;;;;;;;;;4983847;28;20551;-67
2022/09/16 13:41:29;;;;;;;10.85;2.72;;;;;;;;;;5008788;28;20395;-67
2022/09/16 13:43:56;;;;;;;8.70;1.90;;;;;;;;;;5007365;28;20538;-66
2022/09/16 13:46:26;;;;;;;9.02;2.25;;;;;;;;;;4988692;28;20692;-67
2022/09/16 13:48:59;;;;;;;9.60;2.63;;;;;;;;;;5005493;28;20030;-67
2022/09/16 13:51:25;;;;;;;9.98;2.63;;;;;;;;;;4988802;28;20025;-67
2022/09/16 13:53:52;;;;;;;13.48;2.90;;;;;;;;;;5006568;28;20024;-67
2022/09/16 13:56:34;;;;;;;9.38;2.65;;;;;;;;;;5001765;28;20499;-67
2022/09/16 13:59:01;;;;;;;11.32;2.90;;;;;;;;;;5006134;28;20025;-67
2022/09/16 14:01:37;;;;;;;10.13;2.80;;;;;;;;;;5011094;28;20143;-67
2022/09/16 14:04:08;;;;;;;14.32;3.10;;;;;;;;;;5001711;28;20399;-67
2022/09/16 14:06:53;;;;;;;9.63;2.90;;;;;;;;;;5032309;28;20087;-67
2022/09/16 14:09:31;;;;;;;14.38;3.10;;;;;;;;;;5025518;28;20926;-68
2022/09/16 14:11:57;;;;;;;12.48;3.10;;;;;;;;;;5028121;28;20482;-69
2022/09/16 14:14:25;;;;;;;14.02;3.53;;;;;;;;;;5009682;28;20551;-70
2022/09/16 14:16:52;;;;;;;10.93;3.08;;;;;;;;;;5028385;28;20091;-70
2022/09/16 14:19:25;;;;;;;13.13;3.15;;;;;;;;;;5006886;28;20742;-68
2022/09/16 14:22:15;;;;;;;13.95;3.38;;;;;;;;;;5025259;28;20417;-69
2022/09/16 14:24:42;;;;;;;10.05;2.65;;;;;;;;;;5016090;28;20277;-68
2022/09/16 14:27:19;;;;;;;10.13;2.90;;;;;;;;;;5023946;28;20895;-68
2022/09/16 14:29:56;;;;;;;11.05;2.90;;;;;;;;;;5026543;28;20647;-67
2022/09/16 14:32:24;;;;;;;11.60;2.97;;;;;;;;;;5022967;28;20037;-67
2022/09/16 14:34:51;;;;;;;12.05;2.80;;;;;;;;;;5026292;28;20566;-67
2022/09/16 14:37:18;;;;;;;10.52;3.05;;;;;;;;;;5018971;28;20538;-67
2022/09/16 14:39:44;;;;;;;13.15;3.35;;;;;;;;;;5029456;28;20029;-67
2022/09/16 14:42:15;;;;;;;11.50;2.83;;;;;;;;;;5021547;28;20036;-67
2022/09/16 14:44:46;;;;;;;13.30;3.13;;;;;;;;;;5012262;28;20589;-67
2022/09/16 14:47:24;;;;;;;11.48;2.70;;;;;;;;;;5026210;28;20045;-67
2022/09/16 14:49:54;;;;;;;13.18;3.20;;;;;;;;;;5030862;28;20036;-67
2022/09/16 14:52:25;;;;;;;9.85;2.92;;;;;;;;;;5005842;28;20033;-67
2022/09/16 14:54:52;;;;;;;10.68;2.60;;;;;;;;;;5028128;28;20387;-67
2022/09/16 14:57:28;;;;;;;10.73;2.55;;;;;;;;;;5022473;28;20920;-67